EFSI/SJY METAR and TAF weather

Enter ICAO airport designator
Station Type Date Time Source
EFSI METAR 2021/07/26 13:50 UTC NOAA

EFSI 261350Z AUTO 00000KT CAVOK 27/12 Q1019


Station Type Date Time Source
EFSI Decoded METAR 2021/07/26 13:50 UTC NOAA

Seinajoki-Ilmajok, Finland (EFSI) 62-41-37N 022-49-55E
Jul 26, 2021 - 09:50 AM EDT / 2021.07.26 1350 UTC
Wind: Calm:0
Visibility: greater than 7 mile(s):0
Temperature: 80 F (27 C)
Dew Point: 53 F (12 C)
Relative Humidity: 39%
Pressure (altimeter): 30.09 in. Hg (1019 hPa)
ob: EFSI 261350Z AUTO 00000KT CAVOK 27/12 Q1019
cycle: 14

Station Type Date Time Source
EFSI TAF 2012/03/06 09:42 UTC NOAA

TAF EFSI 060830Z 0609/0621 12003KT CAVOK

Example: see airport list